Terminal Aerodrome Forecast
Issued by NWS Mt. Holly, NJ

Home | Current Version | Previous Version | Text Only | Print | Product List | Glossary On
Versions: 1 2 3 4 5 6 7 8 9 10 11 12 13 14 15 16 17 18 19 20 21 22 23
000
FTUS41 KPHI 030527
TAFRDG
TAF
KRDG 030527Z 0306/0406 08005KT 6SM -SHRA BR BKN009 OVC030
      TEMPO 0306/0309 2SM SHRA BR OVC009
     FM030900 04005KT 3SM -SHRA BR OVC005
     FM031300 03005KT 6SM BR VCSH OVC007
     FM032000 09005KT P6SM OVC010
     FM040100 10003KT 6SM BR OVC005=

USA.gov is the U.S. government's official web portal to all federal, state and local government web resources and services.